sensor_id;sensor_type;location;lat;lon;timestamp;P1;durP1;ratioP1;P2;durP2;ratioP2
20814;SDS011;10568;48.176;16.316;2024-01-15T00:01:16;3.63;;;2.47;;
20814;SDS011;10568;48.176;16.316;2024-01-15T00:03:44;2.90;;;1.67;;
20814;SDS011;10568;48.176;16.316;2024-01-15T00:06:13;3.23;;;1.73;;
20814;SDS011;10568;48.176;16.316;2024-01-15T00:08:41;6.53;;;2.90;;
20814;SDS011;10568;48.176;16.316;2024-01-15T00:11:08;3.00;;;2.57;;
20814;SDS011;10568;48.176;16.316;2024-01-15T00:13:35;2.13;;;1.77;;
20814;SDS011;10568;48.176;16.316;2024-01-15T00:16:03;6.20;;;2.33;;
20814;SDS011;10568;48.176;16.316;2024-01-15T00:18:32;5.53;;;1.90;;
20814;SDS011;10568;48.176;16.316;2024-01-15T00:20:59;4.27;;;2.27;;
20814;SDS011;10568;48.176;16.316;2024-01-15T00:23:26;3.73;;;2.30;;
20814;SDS011;10568;48.176;16.316;2024-01-15T00:25:53;5.60;;;2.20;;
20814;SDS011;10568;48.176;16.316;2024-01-15T00:28:21;3.00;;;2.33;;
20814;SDS011;10568;48.176;16.316;2024-01-15T00:30:48;4.23;;;2.27;;
20814;SDS011;10568;48.176;16.316;2024-01-15T00:33:16;3.60;;;2.40;;
20814;SDS011;10568;48.176;16.316;2024-01-15T00:35:43;3.83;;;1.93;;
20814;SDS011;10568;48.176;16.316;2024-01-15T00:38:10;5.13;;;2.90;;
20814;SDS011;10568;48.176;16.316;2024-01-15T00:40:37;3.37;;;2.23;;
20814;SDS011;10568;48.176;16.316;2024-01-15T00:43:06;6.53;;;2.67;;
20814;SDS011;10568;48.176;16.316;2024-01-15T00:45:34;7.97;;;3.40;;
20814;SDS011;10568;48.176;16.316;2024-01-15T00:48:01;4.93;;;2.83;;
20814;SDS011;10568;48.176;16.316;2024-01-15T00:50:29;5.37;;;3.13;;
20814;SDS011;10568;48.176;16.316;2024-01-15T00:52:56;5.57;;;2.80;;
20814;SDS011;10568;48.176;16.316;2024-01-15T00:55:23;8.10;;;3.27;;
20814;SDS011;10568;48.176;16.316;2024-01-15T00:57:50;4.60;;;2.90;;
20814;SDS011;10568;48.176;16.316;2024-01-15T01:00:18;8.27;;;2.90;;
20814;SDS011;10568;48.176;16.316;2024-01-15T01:02:45;5.83;;;2.37;;
20814;SDS011;10568;48.176;16.316;2024-01-15T01:05:12;4.23;;;2.50;;
20814;SDS011;10568;48.176;16.316;2024-01-15T01:07:39;4.50;;;2.23;;
20814;SDS011;10568;48.176;16.316;2024-01-15T01:10:07;2.63;;;2.03;;
20814;SDS011;10568;48.176;16.316;2024-01-15T01:12:34;5.90;;;2.60;;
20814;SDS011;10568;48.176;16.316;2024-01-15T01:15:01;3.87;;;2.70;;
20814;SDS011;10568;48.176;16.316;2024-01-15T01:17:28;3.73;;;2.43;;
20814;SDS011;10568;48.176;16.316;2024-01-15T01:19:57;5.47;;;2.57;;
20814;SDS011;10568;48.176;16.316;2024-01-15T01:22:25;6.30;;;2.70;;
20814;SDS011;10568;48.176;16.316;2024-01-15T01:24:52;5.80;;;3.20;;
20814;SDS011;10568;48.176;16.316;2024-01-15T01:27:19;7.47;;;2.67;;
20814;SDS011;10568;48.176;16.316;2024-01-15T01:29:46;4.67;;;2.77;;
20814;SDS011;10568;48.176;16.316;2024-01-15T01:32:13;6.40;;;2.67;;
20814;SDS011;10568;48.176;16.316;2024-01-15T01:34:41;5.03;;;3.27;;
20814;SDS011;10568;48.176;16.316;2024-01-15T01:37:11;4.03;;;2.40;;
20814;SDS011;10568;48.176;16.316;2024-01-15T01:39:41;7.53;;;3.17;;
20814;SDS011;10568;48.176;16.316;2024-01-15T01:45:01;5.27;;;3.23;;
20814;SDS011;10568;48.176;16.316;2024-01-15T01:47:28;6.20;;;3.07;;
20814;SDS011;10568;48.176;16.316;2024-01-15T01:49:55;6.00;;;2.90;;
20814;SDS011;10568;48.176;16.316;2024-01-15T01:52:23;9.70;;;3.47;;
20814;SDS011;10568;48.176;16.316;2024-01-15T01:54:50;5.83;;;2.50;;
20814;SDS011;10568;48.176;16.316;2024-01-15T01:57:19;5.80;;;3.10;;
20814;SDS011;10568;48.176;16.316;2024-01-15T01:59:46;7.60;;;3.60;;
20814;SDS011;10568;48.176;16.316;2024-01-15T02:02:14;6.93;;;3.40;;
20814;SDS011;10568;48.176;16.316;2024-01-15T02:04:43;7.33;;;3.30;;
20814;SDS011;10568;48.176;16.316;2024-01-15T02:07:11;7.37;;;2.87;;
20814;SDS011;10568;48.176;16.316;2024-01-15T02:12:33;5.13;;;2.67;;
20814;SDS011;10568;48.176;16.316;2024-01-15T02:15:00;7.43;;;2.80;;
20814;SDS011;10568;48.176;16.316;2024-01-15T02:17:27;5.20;;;2.73;;
20814;SDS011;10568;48.176;16.316;2024-01-15T02:19:54;5.63;;;2.50;;
20814;SDS011;10568;48.176;16.316;2024-01-15T02:22:22;5.47;;;2.57;;
20814;SDS011;10568;48.176;16.316;2024-01-15T02:24:49;6.20;;;2.30;;
20814;SDS011;10568;48.176;16.316;2024-01-15T02:27:16;5.43;;;2.60;;
20814;SDS011;10568;48.176;16.316;2024-01-15T02:29:44;6.60;;;2.90;;
20814;SDS011;10568;48.176;16.316;2024-01-15T02:32:11;8.73;;;3.40;;
20814;SDS011;10568;48.176;16.316;2024-01-15T02:34:38;7.17;;;3.23;;
20814;SDS011;10568;48.176;16.316;2024-01-15T02:37:06;7.57;;;3.40;;
20814;SDS011;10568;48.176;16.316;2024-01-15T02:39:33;6.27;;;3.47;;
20814;SDS011;10568;48.176;16.316;2024-01-15T02:42:00;5.50;;;3.07;;
20814;SDS011;10568;48.176;16.316;2024-01-15T02:44:27;8.27;;;3.40;;
20814;SDS011;10568;48.176;16.316;2024-01-15T02:46:54;6.43;;;3.43;;
20814;SDS011;10568;48.176;16.316;2024-01-15T02:49:21;10.07;;;4.20;;
20814;SDS011;10568;48.176;16.316;2024-01-15T02:51:49;4.17;;;2.50;;
20814;SDS011;10568;48.176;16.316;2024-01-15T02:54:22;6.40;;;3.30;;
20814;SDS011;10568;48.176;16.316;2024-01-15T02:56:49;8.60;;;4.03;;
20814;SDS011;10568;48.176;16.316;2024-01-15T02:59:16;6.67;;;3.40;;
20814;SDS011;10568;48.176;16.316;2024-01-15T03:01:43;9.67;;;3.57;;
20814;SDS011;10568;48.176;16.316;2024-01-15T03:04:11;8.67;;;4.20;;
20814;SDS011;10568;48.176;16.316;2024-01-15T03:06:38;5.73;;;3.60;;
20814;SDS011;10568;48.176;16.316;2024-01-15T03:09:05;8.73;;;4.93;;
20814;SDS011;10568;48.176;16.316;2024-01-15T03:11:38;9.67;;;3.43;;
20814;SDS011;10568;48.176;16.316;2024-01-15T03:14:06;7.47;;;4.33;;
20814;SDS011;10568;48.176;16.316;2024-01-15T03:16:33;7.70;;;3.80;;
20814;SDS011;10568;48.176;16.316;2024-01-15T03:19:01;9.03;;;4.30;;
20814;SDS011;10568;48.176;16.316;2024-01-15T03:21:28;6.43;;;3.70;;
20814;SDS011;10568;48.176;16.316;2024-01-15T03:23:55;8.80;;;4.40;;
20814;SDS011;10568;48.176;16.316;2024-01-15T03:26:22;12.33;;;4.70;;
20814;SDS011;10568;48.176;16.316;2024-01-15T03:28:49;7.80;;;4.30;;
20814;SDS011;10568;48.176;16.316;2024-01-15T03:31:16;5.63;;;3.77;;
20814;SDS011;10568;48.176;16.316;2024-01-15T03:33:43;12.27;;;5.40;;
20814;SDS011;10568;48.176;16.316;2024-01-15T03:36:11;11.37;;;4.07;;
20814;SDS011;10568;48.176;16.316;2024-01-15T03:38:40;7.97;;;3.97;;
20814;SDS011;10568;48.176;16.316;2024-01-15T03:41:08;7.30;;;4.03;;
20814;SDS011;10568;48.176;16.316;2024-01-15T03:43:35;9.03;;;4.23;;
20814;SDS011;10568;48.176;16.316;2024-01-15T03:46:03;14.93;;;4.10;;
20814;SDS011;10568;48.176;16.316;2024-01-15T03:48:31;7.77;;;3.10;;
20814;SDS011;10568;48.176;16.316;2024-01-15T03:50:59;9.53;;;3.87;;
20814;SDS011;10568;48.176;16.316;2024-01-15T03:53:26;6.50;;;3.33;;
20814;SDS011;10568;48.176;16.316;2024-01-15T03:55:53;6.67;;;3.87;;
20814;SDS011;10568;48.176;16.316;2024-01-15T03:58:20;8.17;;;4.23;;
20814;SDS011;10568;48.176;16.316;2024-01-15T04:00:48;8.63;;;4.00;;
20814;SDS011;10568;48.176;16.316;2024-01-15T04:03:15;11.03;;;5.37;;
20814;SDS011;10568;48.176;16.316;2024-01-15T04:05:43;9.00;;;4.53;;
20814;SDS011;10568;48.176;16.316;2024-01-15T04:08:10;9.63;;;4.37;;
20814;SDS011;10568;48.176;16.316;2024-01-15T04:10:37;11.50;;;5.00;;
20814;SDS011;10568;48.176;16.316;2024-01-15T04:13:04;8.13;;;4.20;;
20814;SDS011;10568;48.176;16.316;2024-01-15T04:15:31;10.10;;;4.67;;
20814;SDS011;10568;48.176;16.316;2024-01-15T04:17:58;5.60;;;3.33;;
20814;SDS011;10568;48.176;16.316;2024-01-15T04:20:28;7.63;;;4.40;;
20814;SDS011;10568;48.176;16.316;2024-01-15T04:22:55;9.90;;;4.70;;
20814;SDS011;10568;48.176;16.316;2024-01-15T04:25:22;8.57;;;5.20;;
20814;SDS011;10568;48.176;16.316;2024-01-15T04:27:49;13.07;;;5.23;;
20814;SDS011;10568;48.176;16.316;2024-01-15T04:30:16;7.63;;;3.63;;
20814;SDS011;10568;48.176;16.316;2024-01-15T04:32:44;8.40;;;4.50;;
20814;SDS011;10568;48.176;16.316;2024-01-15T04:35:13;7.83;;;3.40;;
20814;SDS011;10568;48.176;16.316;2024-01-15T04:37:40;9.17;;;4.87;;
20814;SDS011;10568;48.176;16.316;2024-01-15T04:40:07;11.40;;;5.07;;
20814;SDS011;10568;48.176;16.316;2024-01-15T04:42:35;5.70;;;3.30;;
20814;SDS011;10568;48.176;16.316;2024-01-15T04:45:02;7.17;;;3.70;;
20814;SDS011;10568;48.176;16.316;2024-01-15T04:50:25;13.00;;;6.20;;
20814;SDS011;10568;48.176;16.316;2024-01-15T04:52:52;8.00;;;4.20;;
20814;SDS011;10568;48.176;16.316;2024-01-15T04:55:19;9.83;;;5.00;;
20814;SDS011;10568;48.176;16.316;2024-01-15T04:57:46;10.70;;;5.37;;
20814;SDS011;10568;48.176;16.316;2024-01-15T05:00:13;13.23;;;5.13;;
20814;SDS011;10568;48.176;16.316;2024-01-15T05:02:41;9.47;;;4.50;;
20814;SDS011;10568;48.176;16.316;2024-01-15T05:05:08;8.53;;;4.93;;
20814;SDS011;10568;48.176;16.316;2024-01-15T05:07:35;7.83;;;4.57;;
20814;SDS011;10568;48.176;16.316;2024-01-15T05:10:03;7.53;;;4.10;;
20814;SDS011;10568;48.176;16.316;2024-01-15T05:12:30;10.27;;;6.37;;
20814;SDS011;10568;48.176;16.316;2024-01-15T05:14:57;7.60;;;4.67;;
20814;SDS011;10568;48.176;16.316;2024-01-15T05:17:24;9.20;;;4.60;;
20814;SDS011;10568;48.176;16.316;2024-01-15T05:19:51;9.17;;;4.80;;
20814;SDS011;10568;48.176;16.316;2024-01-15T05:22:19;8.37;;;4.33;;
20814;SDS011;10568;48.176;16.316;2024-01-15T05:24:47;9.63;;;4.50;;
20814;SDS011;10568;48.176;16.316;2024-01-15T05:27:15;10.10;;;4.83;;
20814;SDS011;10568;48.176;16.316;2024-01-15T05:29:42;10.67;;;5.40;;
20814;SDS011;10568;48.176;16.316;2024-01-15T05:32:09;7.07;;;3.30;;
20814;SDS011;10568;48.176;16.316;2024-01-15T05:34:36;6.63;;;3.77;;
20814;SDS011;10568;48.176;16.316;2024-01-15T05:37:04;10.60;;;4.57;;
20814;SDS011;10568;48.176;16.316;2024-01-15T05:39:31;8.90;;;4.17;;
20814;SDS011;10568;48.176;16.316;2024-01-15T05:41:58;7.33;;;3.90;;
20814;SDS011;10568;48.176;16.316;2024-01-15T05:44:26;7.43;;;3.87;;
20814;SDS011;10568;48.176;16.316;2024-01-15T05:46:53;8.27;;;4.20;;
20814;SDS011;10568;48.176;16.316;2024-01-15T05:49:21;10.90;;;4.57;;
20814;SDS011;10568;48.176;16.316;2024-01-15T05:51:48;9.30;;;4.80;;
20814;SDS011;10568;48.176;16.316;2024-01-15T05:54:15;8.27;;;3.83;;
20814;SDS011;10568;48.176;16.316;2024-01-15T05:56:45;6.00;;;2.97;;
20814;SDS011;10568;48.176;16.316;2024-01-15T05:59:12;4.10;;;2.80;;
20814;SDS011;10568;48.176;16.316;2024-01-15T06:01:41;7.20;;;3.33;;
20814;SDS011;10568;48.176;16.316;2024-01-15T06:04:09;6.50;;;3.50;;
20814;SDS011;10568;48.176;16.316;2024-01-15T06:06:36;6.27;;;3.33;;
20814;SDS011;10568;48.176;16.316;2024-01-15T06:09:03;5.67;;;3.33;;
20814;SDS011;10568;48.176;16.316;2024-01-15T06:11:34;6.70;;;3.77;;
20814;SDS011;10568;48.176;16.316;2024-01-15T06:14:01;8.50;;;3.97;;
20814;SDS011;10568;48.176;16.316;2024-01-15T06:16:28;8.77;;;4.60;;
20814;SDS011;10568;48.176;16.316;2024-01-15T06:18:56;21.10;;;5.30;;
20814;SDS011;10568;48.176;16.316;2024-01-15T06:21:23;9.73;;;5.13;;
20814;SDS011;10568;48.176;16.316;2024-01-15T06:23:51;10.23;;;4.93;;
20814;SDS011;10568;48.176;16.316;2024-01-15T06:26:18;12.83;;;5.27;;
20814;SDS011;10568;48.176;16.316;2024-01-15T06:28:45;11.67;;;5.63;;
20814;SDS011;10568;48.176;16.316;2024-01-15T06:31:12;10.63;;;5.97;;
20814;SDS011;10568;48.176;16.316;2024-01-15T06:33:40;10.10;;;4.70;;
20814;SDS011;10568;48.176;16.316;2024-01-15T06:36:07;8.57;;;4.17;;
20814;SDS011;10568;48.176;16.316;2024-01-15T06:38:35;11.17;;;4.60;;
20814;SDS011;10568;48.176;16.316;2024-01-15T06:41:02;12.70;;;4.60;;
20814;SDS011;10568;48.176;16.316;2024-01-15T06:43:29;8.70;;;3.70;;
20814;SDS011;10568;48.176;16.316;2024-01-15T06:45:56;7.97;;;4.43;;
20814;SDS011;10568;48.176;16.316;2024-01-15T06:48:24;7.27;;;4.07;;
20814;SDS011;10568;48.176;16.316;2024-01-15T06:50:51;9.83;;;5.33;;
20814;SDS011;10568;48.176;16.316;2024-01-15T06:53:19;8.07;;;5.03;;
20814;SDS011;10568;48.176;16.316;2024-01-15T06:55:46;9.17;;;4.80;;
20814;SDS011;10568;48.176;16.316;2024-01-15T06:58:13;7.87;;;4.70;;
20814;SDS011;10568;48.176;16.316;2024-01-15T07:00:40;8.27;;;4.60;;
20814;SDS011;10568;48.176;16.316;2024-01-15T07:03:07;7.93;;;4.27;;
20814;SDS011;10568;48.176;16.316;2024-01-15T07:05:35;10.50;;;4.57;;
20814;SDS011;10568;48.176;16.316;2024-01-15T07:08:04;8.27;;;4.13;;
20814;SDS011;10568;48.176;16.316;2024-01-15T07:10:31;7.37;;;4.07;;
20814;SDS011;10568;48.176;16.316;2024-01-15T07:13:02;7.93;;;3.87;;
20814;SDS011;10568;48.176;16.316;2024-01-15T07:15:29;6.47;;;3.30;;
20814;SDS011;10568;48.176;16.316;2024-01-15T07:17:56;6.73;;;3.60;;
20814;SDS011;10568;48.176;16.316;2024-01-15T07:20:23;5.37;;;3.23;;
20814;SDS011;10568;48.176;16.316;2024-01-15T07:22:51;4.57;;;3.37;;
20814;SDS011;10568;48.176;16.316;2024-01-15T07:25:18;9.70;;;2.93;;
20814;SDS011;10568;48.176;16.316;2024-01-15T07:27:45;6.23;;;3.20;;
20814;SDS011;10568;48.176;16.316;2024-01-15T07:30:13;7.37;;;3.40;;
20814;SDS011;10568;48.176;16.316;2024-01-15T07:32:41;5.50;;;2.87;;
20814;SDS011;10568;48.176;16.316;2024-01-15T07:35:08;5.73;;;3.23;;
20814;SDS011;10568;48.176;16.316;2024-01-15T07:37:37;6.73;;;3.53;;
20814;SDS011;10568;48.176;16.316;2024-01-15T07:40:04;6.07;;;2.87;;
20814;SDS011;10568;48.176;16.316;2024-01-15T07:42:34;3.97;;;2.63;;
20814;SDS011;10568;48.176;16.316;2024-01-15T07:45:02;5.50;;;3.43;;
20814;SDS011;10568;48.176;16.316;2024-01-15T07:47:30;6.17;;;3.43;;
20814;SDS011;10568;48.176;16.316;2024-01-15T07:49:57;5.33;;;2.70;;
20814;SDS011;10568;48.176;16.316;2024-01-15T07:52:31;6.73;;;3.20;;
20814;SDS011;10568;48.176;16.316;2024-01-15T07:54:58;7.23;;;3.43;;
20814;SDS011;10568;48.176;16.316;2024-01-15T07:57:26;5.50;;;3.30;;
20814;SDS011;10568;48.176;16.316;2024-01-15T07:59:54;4.50;;;3.07;;
20814;SDS011;10568;48.176;16.316;2024-01-15T08:02:21;6.80;;;4.10;;
20814;SDS011;10568;48.176;16.316;2024-01-15T08:04:48;7.13;;;3.90;;
20814;SDS011;10568;48.176;16.316;2024-01-15T08:07:16;7.63;;;4.10;;
20814;SDS011;10568;48.176;16.316;2024-01-15T08:09:44;5.13;;;2.83;;
20814;SDS011;10568;48.176;16.316;2024-01-15T08:12:14;5.43;;;3.13;;
20814;SDS011;10568;48.176;16.316;2024-01-15T08:14:42;6.70;;;2.87;;
20814;SDS011;10568;48.176;16.316;2024-01-15T08:17:09;7.63;;;3.40;;
20814;SDS011;10568;48.176;16.316;2024-01-15T08:19:36;8.53;;;3.63;;
20814;SDS011;10568;48.176;16.316;2024-01-15T08:22:03;5.50;;;3.77;;
20814;SDS011;10568;48.176;16.316;2024-01-15T08:24:30;9.27;;;4.83;;
20814;SDS011;10568;48.176;16.316;2024-01-15T08:26:58;6.87;;;3.87;;
20814;SDS011;10568;48.176;16.316;2024-01-15T08:29:25;9.80;;;4.33;;
20814;SDS011;10568;48.176;16.316;2024-01-15T08:31:52;8.63;;;4.10;;
20814;SDS011;10568;48.176;16.316;2024-01-15T08:34:20;7.57;;;4.13;;
20814;SDS011;10568;48.176;16.316;2024-01-15T08:36:47;5.67;;;2.50;;
20814;SDS011;10568;48.176;16.316;2024-01-15T08:39:15;4.33;;;2.47;;
20814;SDS011;10568;48.176;16.316;2024-01-15T08:41:42;6.37;;;3.00;;
20814;SDS011;10568;48.176;16.316;2024-01-15T08:44:09;5.00;;;2.87;;
20814;SDS011;10568;48.176;16.316;2024-01-15T08:46:36;4.43;;;2.50;;
20814;SDS011;10568;48.176;16.316;2024-01-15T08:49:04;7.40;;;3.50;;
20814;SDS011;10568;48.176;16.316;2024-01-15T08:51:33;5.73;;;3.10;;
20814;SDS011;10568;48.176;16.316;2024-01-15T08:54:00;5.43;;;2.67;;
20814;SDS011;10568;48.176;16.316;2024-01-15T08:56:27;5.20;;;2.57;;
20814;SDS011;10568;48.176;16.316;2024-01-15T08:58:54;5.70;;;2.50;;
20814;SDS011;10568;48.176;16.316;2024-01-15T09:01:21;6.20;;;2.73;;
20814;SDS011;10568;48.176;16.316;2024-01-15T09:03:50;4.73;;;2.83;;
20814;SDS011;10568;48.176;16.316;2024-01-15T09:06:17;3.20;;;2.27;;
20814;SDS011;10568;48.176;16.316;2024-01-15T09:08:44;5.10;;;2.53;;
20814;SDS011;10568;48.176;16.316;2024-01-15T09:11:11;5.43;;;2.30;;
20814;SDS011;10568;48.176;16.316;2024-01-15T09:13:39;5.43;;;2.67;;
20814;SDS011;10568;48.176;16.316;2024-01-15T09:16:06;8.23;;;3.00;;
20814;SDS011;10568;48.176;16.316;2024-01-15T09:18:34;4.93;;;2.90;;
20814;SDS011;10568;48.176;16.316;2024-01-15T09:21:03;5.07;;;2.30;;
20814;SDS011;10568;48.176;16.316;2024-01-15T09:23:31;5.23;;;2.90;;
20814;SDS011;10568;48.176;16.316;2024-01-15T09:25:58;5.23;;;3.00;;
20814;SDS011;10568;48.176;16.316;2024-01-15T09:28:25;5.40;;;2.97;;
20814;SDS011;10568;48.176;16.316;2024-01-15T09:30:53;5.10;;;3.33;;
20814;SDS011;10568;48.176;16.316;2024-01-15T09:33:20;7.20;;;3.10;;
20814;SDS011;10568;48.176;16.316;2024-01-15T09:35:47;3.17;;;2.40;;
20814;SDS011;10568;48.176;16.316;2024-01-15T09:38:14;5.90;;;2.87;;
20814;SDS011;10568;48.176;16.316;2024-01-15T09:40:42;4.50;;;2.57;;
20814;SDS011;10568;48.176;16.316;2024-01-15T09:43:12;3.73;;;2.33;;
20814;SDS011;10568;48.176;16.316;2024-01-15T09:45:41;3.83;;;2.70;;
20814;SDS011;10568;48.176;16.316;2024-01-15T09:48:10;4.60;;;2.60;;
20814;SDS011;10568;48.176;16.316;2024-01-15T09:50:38;4.63;;;2.63;;
20814;SDS011;10568;48.176;16.316;2024-01-15T09:53:05;3.60;;;2.50;;
20814;SDS011;10568;48.176;16.316;2024-01-15T09:55:33;6.10;;;3.07;;
20814;SDS011;10568;48.176;16.316;2024-01-15T09:58:00;5.00;;;3.00;;
20814;SDS011;10568;48.176;16.316;2024-01-15T10:00:29;4.93;;;2.80;;
20814;SDS011;10568;48.176;16.316;2024-01-15T10:02:59;5.37;;;2.97;;
20814;SDS011;10568;48.176;16.316;2024-01-15T10:05:27;5.43;;;2.73;;
20814;SDS011;10568;48.176;16.316;2024-01-15T10:07:55;5.93;;;3.10;;
20814;SDS011;10568;48.176;16.316;2024-01-15T10:10:24;5.77;;;2.27;;
20814;SDS011;10568;48.176;16.316;2024-01-15T10:12:51;4.57;;;2.57;;
20814;SDS011;10568;48.176;16.316;2024-01-15T10:15:21;4.97;;;2.63;;
20814;SDS011;10568;48.176;16.316;2024-01-15T10:17:53;3.37;;;2.30;;
20814;SDS011;10568;48.176;16.316;2024-01-15T10:20:20;4.23;;;1.90;;
20814;SDS011;10568;48.176;16.316;2024-01-15T10:22:50;6.83;;;2.23;;
20814;SDS011;10568;48.176;16.316;2024-01-15T10:25:17;3.17;;;2.00;;
20814;SDS011;10568;48.176;16.316;2024-01-15T10:27:58;3.37;;;2.17;;
20814;SDS011;10568;48.176;16.316;2024-01-15T10:30:28;3.43;;;2.00;;
20814;SDS011;10568;48.176;16.316;2024-01-15T10:33:02;1.80;;;1.40;;
20814;SDS011;10568;48.176;16.316;2024-01-15T10:35:31;2.90;;;1.53;;
20814;SDS011;10568;48.176;16.316;2024-01-15T10:38:02;2.60;;;1.90;;
20814;SDS011;10568;48.176;16.316;2024-01-15T10:40:29;6.63;;;2.73;;
20814;SDS011;10568;48.176;16.316;2024-01-15T10:42:57;4.90;;;2.87;;
20814;SDS011;10568;48.176;16.316;2024-01-15T10:45:25;3.60;;;2.30;;
20814;SDS011;10568;48.176;16.316;2024-01-15T10:47:53;7.10;;;2.60;;
20814;SDS011;10568;48.176;16.316;2024-01-15T10:50:27;4.97;;;2.50;;
20814;SDS011;10568;48.176;16.316;2024-01-15T10:52:58;3.33;;;2.50;;
20814;SDS011;10568;48.176;16.316;2024-01-15T10:55:25;3.63;;;2.03;;
20814;SDS011;10568;48.176;16.316;2024-01-15T10:57:55;3.77;;;2.13;;
20814;SDS011;10568;48.176;16.316;2024-01-15T11:00:23;3.43;;;1.90;;
20814;SDS011;10568;48.176;16.316;2024-01-15T11:02:52;3.83;;;2.53;;
20814;SDS011;10568;48.176;16.316;2024-01-15T11:05:22;3.93;;;2.30;;
20814;SDS011;10568;48.176;16.316;2024-01-15T11:07:50;5.00;;;2.70;;
20814;SDS011;10568;48.176;16.316;2024-01-15T11:16:00;3.53;;;2.30;;
20814;SDS011;10568;48.176;16.316;2024-01-15T11:18:31;3.60;;;2.03;;
20814;SDS011;10568;48.176;16.316;2024-01-15T11:23:44;2.13;;;1.60;;
20814;SDS011;10568;48.176;16.316;2024-01-15T11:29:00;3.83;;;2.30;;
20814;SDS011;10568;48.176;16.316;2024-01-15T11:31:56;5.43;;;2.57;;
20814;SDS011;10568;48.176;16.316;2024-01-15T11:34:17;3.47;;;2.07;;
20814;SDS011;10568;48.176;16.316;2024-01-15T11:37:02;3.53;;;2.23;;
20814;SDS011;10568;48.176;16.316;2024-01-15T11:42:01;3.50;;;2.90;;
20814;SDS011;10568;48.176;16.316;2024-01-15T11:44:30;2.97;;;2.20;;
20814;SDS011;10568;48.176;16.316;2024-01-15T11:47:00;4.87;;;3.00;;
20814;SDS011;10568;48.176;16.316;2024-01-15T11:52:32;5.17;;;2.27;;
20814;SDS011;10568;48.176;16.316;2024-01-15T11:55:17;4.30;;;2.63;;
20814;SDS011;10568;48.176;16.316;2024-01-15T11:57:52;3.83;;;2.47;;
20814;SDS011;10568;48.176;16.316;2024-01-15T12:00:23;9.20;;;2.20;;
20814;SDS011;10568;48.176;16.316;2024-01-15T12:02:51;3.87;;;2.60;;
20814;SDS011;10568;48.176;16.316;2024-01-15T12:05:18;2.03;;;0.90;;
20814;SDS011;10568;48.176;16.316;2024-01-15T12:07:48;5.10;;;2.90;;
20814;SDS011;10568;48.176;16.316;2024-01-15T12:10:18;3.97;;;2.10;;
20814;SDS011;10568;48.176;16.316;2024-01-15T12:13:00;4.07;;;2.23;;
20814;SDS011;10568;48.176;16.316;2024-01-15T12:15:28;4.30;;;2.30;;
20814;SDS011;10568;48.176;16.316;2024-01-15T12:17:57;4.23;;;2.23;;
20814;SDS011;10568;48.176;16.316;2024-01-15T12:20:30;3.17;;;1.93;;
20814;SDS011;10568;48.176;16.316;2024-01-15T12:22:57;2.13;;;1.43;;
20814;SDS011;10568;48.176;16.316;2024-01-15T12:25:30;4.20;;;2.20;;
20814;SDS011;10568;48.176;16.316;2024-01-15T12:28:06;4.23;;;2.40;;
20814;SDS011;10568;48.176;16.316;2024-01-15T12:30:38;3.20;;;1.90;;
20814;SDS011;10568;48.176;16.316;2024-01-15T12:33:10;2.97;;;2.50;;
20814;SDS011;10568;48.176;16.316;2024-01-15T12:35:38;4.50;;;2.27;;
20814;SDS011;10568;48.176;16.316;2024-01-15T12:38:06;2.80;;;1.93;;
20814;SDS011;10568;48.176;16.316;2024-01-15T12:40:36;3.23;;;1.93;;
20814;SDS011;10568;48.176;16.316;2024-01-15T12:43:06;7.47;;;2.87;;
20814;SDS011;10568;48.176;16.316;2024-01-15T12:45:36;3.30;;;2.00;;
20814;SDS011;10568;48.176;16.316;2024-01-15T12:48:05;2.83;;;1.77;;
20814;SDS011;10568;48.176;16.316;2024-01-15T12:50:35;3.10;;;2.10;;
20814;SDS011;10568;48.176;16.316;2024-01-15T12:53:06;2.00;;;1.30;;
20814;SDS011;10568;48.176;16.316;2024-01-15T12:55:35;5.00;;;2.00;;
20814;SDS011;10568;48.176;16.316;2024-01-15T12:58:05;2.83;;;1.83;;
20814;SDS011;10568;48.176;16.316;2024-01-15T13:00:35;3.07;;;1.83;;
20814;SDS011;10568;48.176;16.316;2024-01-15T13:03:02;3.50;;;1.73;;
20814;SDS011;10568;48.176;16.316;2024-01-15T13:05:31;4.10;;;2.10;;
20814;SDS011;10568;48.176;16.316;2024-01-15T13:08:00;2.97;;;1.83;;
20814;SDS011;10568;48.176;16.316;2024-01-15T13:10:29;12.27;;;2.10;;
20814;SDS011;10568;48.176;16.316;2024-01-15T13:12:57;5.40;;;1.20;;
20814;SDS011;10568;48.176;16.316;2024-01-15T13:15:24;2.53;;;2.00;;
20814;SDS011;10568;48.176;16.316;2024-01-15T13:17:51;2.73;;;2.07;;
20814;SDS011;10568;48.176;16.316;2024-01-15T13:20:18;2.67;;;1.90;;
20814;SDS011;10568;48.176;16.316;2024-01-15T13:22:48;1.23;;;1.13;;
20814;SDS011;10568;48.176;16.316;2024-01-15T13:25:15;2.63;;;1.50;;
20814;SDS011;10568;48.176;16.316;2024-01-15T13:27:42;2.57;;;1.70;;
20814;SDS011;10568;48.176;16.316;2024-01-15T13:30:10;3.03;;;1.97;;
20814;SDS011;10568;48.176;16.316;2024-01-15T13:32:39;4.47;;;2.30;;
20814;SDS011;10568;48.176;16.316;2024-01-15T13:35:07;2.87;;;1.50;;
20814;SDS011;10568;48.176;16.316;2024-01-15T13:37:36;2.10;;;1.47;;
20814;SDS011;10568;48.176;16.316;2024-01-15T13:40:06;3.07;;;1.70;;
20814;SDS011;10568;48.176;16.316;2024-01-15T13:42:36;2.97;;;1.83;;
20814;SDS011;10568;48.176;16.316;2024-01-15T13:45:06;2.33;;;1.13;;
20814;SDS011;10568;48.176;16.316;2024-01-15T13:47:34;2.27;;;1.60;;
20814;SDS011;10568;48.176;16.316;2024-01-15T13:50:02;4.63;;;2.03;;
20814;SDS011;10568;48.176;16.316;2024-01-15T13:52:29;3.57;;;1.73;;
20814;SDS011;10568;48.176;16.316;2024-01-15T13:54:56;2.00;;;1.37;;
20814;SDS011;10568;48.176;16.316;2024-01-15T13:57:24;2.40;;;1.67;;
20814;SDS011;10568;48.176;16.316;2024-01-15T13:59:51;2.87;;;1.83;;
20814;SDS011;10568;48.176;16.316;2024-01-15T14:02:18;2.67;;;1.77;;
20814;SDS011;10568;48.176;16.316;2024-01-15T14:04:49;1.77;;;1.37;;
20814;SDS011;10568;48.176;16.316;2024-01-15T14:07:19;1.40;;;1.30;;
20814;SDS011;10568;48.176;16.316;2024-01-15T14:09:50;1.57;;;1.17;;
20814;SDS011;10568;48.176;16.316;2024-01-15T14:12:17;4.33;;;1.50;;
20814;SDS011;10568;48.176;16.316;2024-01-15T14:14:44;2.70;;;1.70;;
20814;SDS011;10568;48.176;16.316;2024-01-15T14:17:20;3.97;;;1.30;;
20814;SDS011;10568;48.176;16.316;2024-01-15T14:19:47;2.90;;;1.60;;
20814;SDS011;10568;48.176;16.316;2024-01-15T14:22:14;2.30;;;1.63;;
20814;SDS011;10568;48.176;16.316;2024-01-15T14:24:41;2.80;;;1.63;;
20814;SDS011;10568;48.176;16.316;2024-01-15T14:27:08;2.53;;;1.80;;
20814;SDS011;10568;48.176;16.316;2024-01-15T14:29:36;2.53;;;1.43;;
20814;SDS011;10568;48.176;16.316;2024-01-15T14:32:04;2.37;;;1.40;;
20814;SDS011;10568;48.176;16.316;2024-01-15T14:34:31;2.80;;;1.50;;
20814;SDS011;10568;48.176;16.316;2024-01-15T14:36:59;2.27;;;1.20;;
20814;SDS011;10568;48.176;16.316;2024-01-15T14:39:26;2.93;;;1.93;;
20814;SDS011;10568;48.176;16.316;2024-01-15T14:41:54;2.17;;;1.37;;
20814;SDS011;10568;48.176;16.316;2024-01-15T14:44:21;2.37;;;1.70;;
20814;SDS011;10568;48.176;16.316;2024-01-15T14:46:48;2.03;;;1.20;;
20814;SDS011;10568;48.176;16.316;2024-01-15T14:49:25;1.97;;;1.30;;
20814;SDS011;10568;48.176;16.316;2024-01-15T14:52:51;2.77;;;1.60;;
20814;SDS011;10568;48.176;16.316;2024-01-15T14:55:40;3.13;;;1.53;;
20814;SDS011;10568;48.176;16.316;2024-01-15T14:58:07;1.93;;;1.00;;
20814;SDS011;10568;48.176;16.316;2024-01-15T15:00:43;1.77;;;1.20;;
20814;SDS011;10568;48.176;16.316;2024-01-15T15:03:13;2.00;;;1.50;;
20814;SDS011;10568;48.176;16.316;2024-01-15T15:05:44;1.40;;;1.20;;